sensor_id;sensor_type;location;lat;lon;timestamp;P1;durP1;ratioP1;P2;durP2;ratioP2
22697;SDS011;11516;51.612;7.510;2022-07-05T00:00:56;2.58;;;1.95;;
22697;SDS011;11516;51.612;7.510;2022-07-05T00:03:22;2.50;;;1.92;;
22697;SDS011;11516;51.612;7.510;2022-07-05T00:05:48;4.93;;;2.15;;
22697;SDS011;11516;51.612;7.510;2022-07-05T00:08:14;2.67;;;2.08;;
22697;SDS011;11516;51.612;7.510;2022-07-05T00:10:39;5.15;;;2.30;;
22697;SDS011;11516;51.612;7.510;2022-07-05T00:13:08;3.78;;;1.92;;
22697;SDS011;11516;51.612;7.510;2022-07-05T00:15:34;3.53;;;2.22;;
22697;SDS011;11516;51.612;7.510;2022-07-05T00:17:59;3.30;;;2.40;;
22697;SDS011;11516;51.612;7.510;2022-07-05T00:20:25;3.72;;;2.40;;
22697;SDS011;11516;51.612;7.510;2022-07-05T00:22:52;2.90;;;2.08;;
22697;SDS011;11516;51.612;7.510;2022-07-05T00:25:18;3.47;;;1.90;;
22697;SDS011;11516;51.612;7.510;2022-07-05T00:27:43;2.17;;;1.83;;
22697;SDS011;11516;51.612;7.510;2022-07-05T00:30:09;2.77;;;2.30;;
22697;SDS011;11516;51.612;7.510;2022-07-05T00:32:35;2.97;;;2.10;;
22697;SDS011;11516;51.612;7.510;2022-07-05T00:35:02;2.72;;;2.10;;
22697;SDS011;11516;51.612;7.510;2022-07-05T00:37:28;2.53;;;2.03;;
22697;SDS011;11516;51.612;7.510;2022-07-05T00:39:54;4.75;;;2.40;;
22697;SDS011;11516;51.612;7.510;2022-07-05T00:42:20;3.95;;;2.55;;
22697;SDS011;11516;51.612;7.510;2022-07-05T00:44:46;3.85;;;2.20;;
22697;SDS011;11516;51.612;7.510;2022-07-05T00:47:11;2.47;;;1.97;;
22697;SDS011;11516;51.612;7.510;2022-07-05T00:49:38;3.72;;;2.08;;
22697;SDS011;11516;51.612;7.510;2022-07-05T00:52:04;4.65;;;2.50;;
22697;SDS011;11516;51.612;7.510;2022-07-05T00:54:34;2.80;;;2.10;;
22697;SDS011;11516;51.612;7.510;2022-07-05T00:57:02;4.50;;;2.50;;
22697;SDS011;11516;51.612;7.510;2022-07-05T00:59:28;2.92;;;1.88;;
22697;SDS011;11516;51.612;7.510;2022-07-05T01:01:54;2.13;;;1.92;;
22697;SDS011;11516;51.612;7.510;2022-07-05T01:04:21;2.40;;;2.20;;
22697;SDS011;11516;51.612;7.510;2022-07-05T01:06:47;3.15;;;2.00;;
22697;SDS011;11516;51.612;7.510;2022-07-05T01:09:15;3.60;;;2.10;;
22697;SDS011;11516;51.612;7.510;2022-07-05T01:11:42;4.63;;;2.40;;
22697;SDS011;11516;51.612;7.510;2022-07-05T01:14:09;3.03;;;2.25;;
22697;SDS011;11516;51.612;7.510;2022-07-05T01:16:38;5.57;;;4.13;;
22697;SDS011;11516;51.612;7.510;2022-07-05T01:19:04;5.40;;;3.35;;
22697;SDS011;11516;51.612;7.510;2022-07-05T01:21:32;3.72;;;2.97;;
22697;SDS011;11516;51.612;7.510;2022-07-05T01:24:02;2.95;;;2.40;;
22697;SDS011;11516;51.612;7.510;2022-07-05T01:26:29;3.70;;;2.30;;
22697;SDS011;11516;51.612;7.510;2022-07-05T01:28:55;3.90;;;2.40;;
22697;SDS011;11516;51.612;7.510;2022-07-05T01:31:20;3.92;;;2.70;;
22697;SDS011;11516;51.612;7.510;2022-07-05T01:33:46;2.90;;;2.67;;
22697;SDS011;11516;51.612;7.510;2022-07-05T01:36:12;3.43;;;2.40;;
22697;SDS011;11516;51.612;7.510;2022-07-05T01:38:39;4.93;;;2.80;;
22697;SDS011;11516;51.612;7.510;2022-07-05T01:41:05;3.58;;;2.80;;
22697;SDS011;11516;51.612;7.510;2022-07-05T01:43:32;3.65;;;2.70;;
22697;SDS011;11516;51.612;7.510;2022-07-05T01:45:59;5.07;;;2.90;;
22697;SDS011;11516;51.612;7.510;2022-07-05T01:48:26;4.07;;;2.70;;
22697;SDS011;11516;51.612;7.510;2022-07-05T01:50:57;5.20;;;2.60;;
22697;SDS011;11516;51.612;7.510;2022-07-05T01:53:29;4.18;;;2.75;;
22697;SDS011;11516;51.612;7.510;2022-07-05T01:55:55;5.25;;;2.78;;
22697;SDS011;11516;51.612;7.510;2022-07-05T01:58:22;4.22;;;2.72;;
22697;SDS011;11516;51.612;7.510;2022-07-05T02:00:50;3.40;;;2.75;;
22697;SDS011;11516;51.612;7.510;2022-07-05T02:03:18;3.58;;;2.53;;
22697;SDS011;11516;51.612;7.510;2022-07-05T02:05:44;3.55;;;2.53;;
22697;SDS011;11516;51.612;7.510;2022-07-05T02:08:11;5.93;;;2.70;;
22697;SDS011;11516;51.612;7.510;2022-07-05T02:10:38;2.95;;;2.53;;
22697;SDS011;11516;51.612;7.510;2022-07-05T02:13:04;3.00;;;2.70;;
22697;SDS011;11516;51.612;7.510;2022-07-05T02:15:31;3.45;;;2.78;;
22697;SDS011;11516;51.612;7.510;2022-07-05T02:17:58;2.90;;;2.58;;
22697;SDS011;11516;51.612;7.510;2022-07-05T02:20:24;4.43;;;3.08;;
22697;SDS011;11516;51.612;7.510;2022-07-05T02:22:50;3.17;;;2.83;;
22697;SDS011;11516;51.612;7.510;2022-07-05T02:25:16;3.47;;;3.03;;
22697;SDS011;11516;51.612;7.510;2022-07-05T02:27:41;4.05;;;3.40;;
22697;SDS011;11516;51.612;7.510;2022-07-05T02:30:07;5.10;;;3.10;;
22697;SDS011;11516;51.612;7.510;2022-07-05T02:32:33;5.32;;;3.30;;
22697;SDS011;11516;51.612;7.510;2022-07-05T02:34:59;5.40;;;3.30;;
22697;SDS011;11516;51.612;7.510;2022-07-05T02:37:25;5.23;;;3.30;;
22697;SDS011;11516;51.612;7.510;2022-07-05T02:39:52;3.50;;;3.20;;
22697;SDS011;11516;51.612;7.510;2022-07-05T02:42:19;4.15;;;3.35;;
22697;SDS011;11516;51.612;7.510;2022-07-05T02:44:44;4.85;;;3.30;;
22697;SDS011;11516;51.612;7.510;2022-07-05T02:47:10;3.55;;;3.03;;
22697;SDS011;11516;51.612;7.510;2022-07-05T02:49:36;4.00;;;3.00;;
22697;SDS011;11516;51.612;7.510;2022-07-05T02:52:02;4.15;;;2.95;;
22697;SDS011;11516;51.612;7.510;2022-07-05T02:54:27;5.53;;;3.05;;
22697;SDS011;11516;51.612;7.510;2022-07-05T02:56:53;3.05;;;2.75;;
22697;SDS011;11516;51.612;7.510;2022-07-05T02:59:19;4.35;;;2.90;;
22697;SDS011;11516;51.612;7.510;2022-07-05T03:01:44;4.90;;;3.20;;
22697;SDS011;11516;51.612;7.510;2022-07-05T03:04:10;4.70;;;3.10;;
22697;SDS011;11516;51.612;7.510;2022-07-05T03:06:36;4.80;;;2.90;;
22697;SDS011;11516;51.612;7.510;2022-07-05T03:09:02;4.05;;;3.10;;
22697;SDS011;11516;51.612;7.510;2022-07-05T03:11:27;4.67;;;3.20;;
22697;SDS011;11516;51.612;7.510;2022-07-05T03:13:53;4.68;;;3.20;;
22697;SDS011;11516;51.612;7.510;2022-07-05T03:16:19;4.70;;;3.10;;
22697;SDS011;11516;51.612;7.510;2022-07-05T03:18:44;4.70;;;3.05;;
22697;SDS011;11516;51.612;7.510;2022-07-05T03:21:10;3.40;;;2.80;;
22697;SDS011;11516;51.612;7.510;2022-07-05T03:23:36;4.47;;;3.20;;
22697;SDS011;11516;51.612;7.510;2022-07-05T03:26:01;5.10;;;3.60;;
22697;SDS011;11516;51.612;7.510;2022-07-05T03:28:27;5.18;;;3.75;;
22697;SDS011;11516;51.612;7.510;2022-07-05T03:30:53;4.40;;;3.22;;
22697;SDS011;11516;51.612;7.510;2022-07-05T03:33:18;5.10;;;3.13;;
22697;SDS011;11516;51.612;7.510;2022-07-05T03:35:44;4.88;;;3.30;;
22697;SDS011;11516;51.612;7.510;2022-07-05T03:38:09;6.05;;;3.17;;
22697;SDS011;11516;51.612;7.510;2022-07-05T03:40:35;3.33;;;3.03;;
22697;SDS011;11516;51.612;7.510;2022-07-05T03:43:01;4.73;;;3.27;;
22697;SDS011;11516;51.612;7.510;2022-07-05T03:45:26;3.67;;;3.30;;
22697;SDS011;11516;51.612;7.510;2022-07-05T03:47:52;6.22;;;3.20;;
22697;SDS011;11516;51.612;7.510;2022-07-05T03:50:18;4.85;;;3.15;;
22697;SDS011;11516;51.612;7.510;2022-07-05T03:52:43;4.15;;;3.20;;
22697;SDS011;11516;51.612;7.510;2022-07-05T03:55:09;3.90;;;3.28;;
22697;SDS011;11516;51.612;7.510;2022-07-05T03:57:34;8.33;;;3.47;;
22697;SDS011;11516;51.612;7.510;2022-07-05T04:00:00;4.97;;;3.13;;
22697;SDS011;11516;51.612;7.510;2022-07-05T04:02:26;4.97;;;3.33;;
22697;SDS011;11516;51.612;7.510;2022-07-05T04:04:51;5.93;;;3.10;;
22697;SDS011;11516;51.612;7.510;2022-07-05T04:07:17;4.15;;;3.10;;
22697;SDS011;11516;51.612;7.510;2022-07-05T04:09:43;4.73;;;3.53;;
22697;SDS011;11516;51.612;7.510;2022-07-05T04:12:08;4.47;;;3.50;;
22697;SDS011;11516;51.612;7.510;2022-07-05T04:14:34;3.95;;;3.08;;
22697;SDS011;11516;51.612;7.510;2022-07-05T04:17:00;3.50;;;3.20;;
22697;SDS011;11516;51.612;7.510;2022-07-05T04:19:25;4.85;;;3.00;;
22697;SDS011;11516;51.612;7.510;2022-07-05T04:21:51;5.27;;;4.10;;
22697;SDS011;11516;51.612;7.510;2022-07-05T04:24:17;5.00;;;4.00;;
22697;SDS011;11516;51.612;7.510;2022-07-05T04:26:42;4.70;;;3.47;;
22697;SDS011;11516;51.612;7.510;2022-07-05T04:29:08;4.35;;;3.28;;
22697;SDS011;11516;51.612;7.510;2022-07-05T04:31:34;3.50;;;3.20;;
22697;SDS011;11516;51.612;7.510;2022-07-05T04:34:00;4.35;;;3.60;;
22697;SDS011;11516;51.612;7.510;2022-07-05T04:36:25;4.57;;;3.50;;
22697;SDS011;11516;51.612;7.510;2022-07-05T04:38:51;5.38;;;3.40;;
22697;SDS011;11516;51.612;7.510;2022-07-05T04:41:17;5.50;;;3.95;;
22697;SDS011;11516;51.612;7.510;2022-07-05T04:43:42;6.70;;;3.77;;
22697;SDS011;11516;51.612;7.510;2022-07-05T04:46:08;4.77;;;3.57;;
22697;SDS011;11516;51.612;7.510;2022-07-05T04:48:34;5.93;;;3.70;;
22697;SDS011;11516;51.612;7.510;2022-07-05T04:50:59;6.32;;;3.95;;
22697;SDS011;11516;51.612;7.510;2022-07-05T04:55:59;5.05;;;4.05;;
22697;SDS011;11516;51.612;7.510;2022-07-05T04:58:25;4.78;;;3.75;;
22697;SDS011;11516;51.612;7.510;2022-07-05T05:00:50;6.45;;;4.07;;
22697;SDS011;11516;51.612;7.510;2022-07-05T05:03:16;5.38;;;4.10;;
22697;SDS011;11516;51.612;7.510;2022-07-05T05:05:41;6.10;;;3.90;;
22697;SDS011;11516;51.612;7.510;2022-07-05T05:08:07;4.50;;;3.70;;
22697;SDS011;11516;51.612;7.510;2022-07-05T05:10:33;4.20;;;3.80;;
22697;SDS011;11516;51.612;7.510;2022-07-05T05:12:58;4.87;;;3.70;;
22697;SDS011;11516;51.612;7.510;2022-07-05T05:15:24;4.90;;;3.63;;
22697;SDS011;11516;51.612;7.510;2022-07-05T05:17:49;5.70;;;4.63;;
22697;SDS011;11516;51.612;7.510;2022-07-05T05:20:18;13.13;;;9.82;;
22697;SDS011;11516;51.612;7.510;2022-07-05T05:22:46;4.72;;;3.63;;
22697;SDS011;11516;51.612;7.510;2022-07-05T05:25:13;4.82;;;3.95;;
22697;SDS011;11516;51.612;7.510;2022-07-05T05:27:42;4.28;;;3.40;;
22697;SDS011;11516;51.612;7.510;2022-07-05T05:30:09;6.82;;;3.85;;
22697;SDS011;11516;51.612;7.510;2022-07-05T05:32:43;5.15;;;3.40;;
22697;SDS011;11516;51.612;7.510;2022-07-05T05:35:08;4.57;;;3.67;;
22697;SDS011;11516;51.612;7.510;2022-07-05T05:37:53;4.15;;;3.40;;
22697;SDS011;11516;51.612;7.510;2022-07-05T05:40:23;4.90;;;3.80;;
22697;SDS011;11516;51.612;7.510;2022-07-05T05:42:49;5.63;;;3.80;;
22697;SDS011;11516;51.612;7.510;2022-07-05T05:45:16;5.18;;;4.20;;
22697;SDS011;11516;51.612;7.510;2022-07-05T05:47:46;4.10;;;3.67;;
22697;SDS011;11516;51.612;7.510;2022-07-05T05:50:13;4.78;;;3.60;;
22697;SDS011;11516;51.612;7.510;2022-07-05T05:52:38;4.93;;;3.60;;
22697;SDS011;11516;51.612;7.510;2022-07-05T05:55:04;6.45;;;3.50;;
22697;SDS011;11516;51.612;7.510;2022-07-05T05:57:31;5.18;;;3.85;;
22697;SDS011;11516;51.612;7.510;2022-07-05T05:59:58;4.95;;;3.20;;
22697;SDS011;11516;51.612;7.510;2022-07-05T06:02:23;3.58;;;3.00;;
22697;SDS011;11516;51.612;7.510;2022-07-05T06:04:49;10.20;;;7.28;;
22697;SDS011;11516;51.612;7.510;2022-07-05T06:07:14;7.53;;;4.40;;
22697;SDS011;11516;51.612;7.510;2022-07-05T06:09:40;3.75;;;3.10;;
22697;SDS011;11516;51.612;7.510;2022-07-05T06:12:05;4.35;;;3.45;;
22697;SDS011;11516;51.612;7.510;2022-07-05T06:14:31;4.68;;;3.30;;
22697;SDS011;11516;51.612;7.510;2022-07-05T06:16:57;4.23;;;3.17;;
22697;SDS011;11516;51.612;7.510;2022-07-05T06:19:22;4.03;;;3.03;;
22697;SDS011;11516;51.612;7.510;2022-07-05T06:21:48;4.70;;;2.80;;
22697;SDS011;11516;51.612;7.510;2022-07-05T06:24:16;4.03;;;2.40;;
22697;SDS011;11516;51.612;7.510;2022-07-05T06:26:42;3.40;;;2.33;;
22697;SDS011;11516;51.612;7.510;2022-07-05T06:29:07;3.55;;;2.45;;
22697;SDS011;11516;51.612;7.510;2022-07-05T06:31:33;5.15;;;2.70;;
22697;SDS011;11516;51.612;7.510;2022-07-05T06:34:01;3.17;;;2.58;;
22697;SDS011;11516;51.612;7.510;2022-07-05T06:36:26;2.93;;;2.30;;
22697;SDS011;11516;51.612;7.510;2022-07-05T06:38:52;3.07;;;2.43;;
22697;SDS011;11516;51.612;7.510;2022-07-05T06:41:17;3.10;;;2.30;;
22697;SDS011;11516;51.612;7.510;2022-07-05T06:43:43;3.50;;;2.30;;
22697;SDS011;11516;51.612;7.510;2022-07-05T06:46:08;3.25;;;1.75;;
22697;SDS011;11516;51.612;7.510;2022-07-05T06:48:34;2.53;;;1.92;;
22697;SDS011;11516;51.612;7.510;2022-07-05T06:51:00;3.33;;;1.98;;
22697;SDS011;11516;51.612;7.510;2022-07-05T06:53:26;3.80;;;2.10;;
22697;SDS011;11516;51.612;7.510;2022-07-05T06:55:51;2.63;;;1.77;;
22697;SDS011;11516;51.612;7.510;2022-07-05T06:58:17;3.27;;;1.80;;
22697;SDS011;11516;51.612;7.510;2022-07-05T07:00:43;4.03;;;2.85;;
22697;SDS011;11516;51.612;7.510;2022-07-05T07:03:09;2.65;;;1.60;;
22697;SDS011;11516;51.612;7.510;2022-07-05T07:05:35;1.80;;;1.60;;
22697;SDS011;11516;51.612;7.510;2022-07-05T07:08:00;1.67;;;1.50;;
22697;SDS011;11516;51.612;7.510;2022-07-05T07:10:44;2.55;;;1.90;;
22697;SDS011;11516;51.612;7.510;2022-07-05T07:13:10;1.87;;;1.50;;
22697;SDS011;11516;51.612;7.510;2022-07-05T07:15:36;1.70;;;1.60;;
22697;SDS011;11516;51.612;7.510;2022-07-05T07:18:03;1.95;;;1.40;;
22697;SDS011;11516;51.612;7.510;2022-07-05T07:20:36;3.17;;;1.70;;
22697;SDS011;11516;51.612;7.510;2022-07-05T07:23:02;2.53;;;1.67;;
22697;SDS011;11516;51.612;7.510;2022-07-05T07:25:27;3.83;;;1.80;;
22697;SDS011;11516;51.612;7.510;2022-07-05T07:27:53;2.80;;;1.50;;
22697;SDS011;11516;51.612;7.510;2022-07-05T07:30:24;2.70;;;1.63;;
22697;SDS011;11516;51.612;7.510;2022-07-05T07:33:07;2.85;;;1.50;;
22697;SDS011;11516;51.612;7.510;2022-07-05T07:35:37;2.85;;;1.40;;
22697;SDS011;11516;51.612;7.510;2022-07-05T07:38:05;3.30;;;1.60;;
22697;SDS011;11516;51.612;7.510;2022-07-05T07:40:31;3.72;;;2.35;;
22697;SDS011;11516;51.612;7.510;2022-07-05T07:42:57;2.58;;;2.15;;
22697;SDS011;11516;51.612;7.510;2022-07-05T07:45:22;3.80;;;2.20;;
22697;SDS011;11516;51.612;7.510;2022-07-05T07:47:48;3.67;;;2.37;;
22697;SDS011;11516;51.612;7.510;2022-07-05T07:50:16;3.93;;;2.30;;
22697;SDS011;11516;51.612;7.510;2022-07-05T07:52:42;4.03;;;1.40;;
22697;SDS011;11516;51.612;7.510;2022-07-05T07:55:07;2.40;;;1.40;;
22697;SDS011;11516;51.612;7.510;2022-07-05T07:57:33;4.70;;;1.83;;
22697;SDS011;11516;51.612;7.510;2022-07-05T08:00:03;2.83;;;1.60;;
22697;SDS011;11516;51.612;7.510;2022-07-05T08:02:29;3.65;;;1.30;;
22697;SDS011;11516;51.612;7.510;2022-07-05T08:04:54;6.30;;;3.30;;
22697;SDS011;11516;51.612;7.510;2022-07-05T08:07:20;5.03;;;2.77;;
22697;SDS011;11516;51.612;7.510;2022-07-05T08:09:46;3.40;;;1.80;;
22697;SDS011;11516;51.612;7.510;2022-07-05T08:12:12;3.00;;;1.43;;
22697;SDS011;11516;51.612;7.510;2022-07-05T08:14:37;5.78;;;2.00;;
22697;SDS011;11516;51.612;7.510;2022-07-05T08:17:06;2.13;;;1.40;;
22697;SDS011;11516;51.612;7.510;2022-07-05T08:19:45;3.17;;;1.88;;
22697;SDS011;11516;51.612;7.510;2022-07-05T08:22:32;1.90;;;1.73;;
22697;SDS011;11516;51.612;7.510;2022-07-05T08:24:58;2.47;;;1.80;;
22697;SDS011;11516;51.612;7.510;2022-07-05T08:27:24;3.35;;;1.65;;
22697;SDS011;11516;51.612;7.510;2022-07-05T08:29:50;2.05;;;1.50;;
22697;SDS011;11516;51.612;7.510;2022-07-05T08:32:15;3.70;;;1.98;;
22697;SDS011;11516;51.612;7.510;2022-07-05T08:34:46;3.65;;;1.60;;
22697;SDS011;11516;51.612;7.510;2022-07-05T08:37:15;2.30;;;1.45;;
22697;SDS011;11516;51.612;7.510;2022-07-05T08:39:45;1.95;;;1.70;;
22697;SDS011;11516;51.612;7.510;2022-07-05T08:42:11;1.70;;;1.48;;
22697;SDS011;11516;51.612;7.510;2022-07-05T08:44:38;2.30;;;1.70;;
22697;SDS011;11516;51.612;7.510;2022-07-05T08:47:06;2.90;;;1.70;;
22697;SDS011;11516;51.612;7.510;2022-07-05T08:49:34;2.30;;;1.50;;
22697;SDS011;11516;51.612;7.510;2022-07-05T08:52:02;4.53;;;1.75;;
22697;SDS011;11516;51.612;7.510;2022-07-05T08:54:29;2.83;;;1.50;;
22697;SDS011;11516;51.612;7.510;2022-07-05T08:56:55;3.47;;;1.52;;
22697;SDS011;11516;51.612;7.510;2022-07-05T08:59:20;1.90;;;1.40;;
22697;SDS011;11516;51.612;7.510;2022-07-05T09:01:46;1.93;;;1.67;;
22697;SDS011;11516;51.612;7.510;2022-07-05T09:04:19;2.78;;;1.65;;
22697;SDS011;11516;51.612;7.510;2022-07-05T09:06:46;3.30;;;1.50;;
22697;SDS011;11516;51.612;7.510;2022-07-05T09:09:13;2.92;;;1.70;;
22697;SDS011;11516;51.612;7.510;2022-07-05T09:11:43;3.08;;;1.60;;
22697;SDS011;11516;51.612;7.510;2022-07-05T09:14:20;1.65;;;1.40;;
22697;SDS011;11516;51.612;7.510;2022-07-05T09:16:48;3.53;;;1.40;;
22697;SDS011;11516;51.612;7.510;2022-07-05T09:19:14;1.52;;;1.33;;
22697;SDS011;11516;51.612;7.510;2022-07-05T09:21:40;2.95;;;1.80;;
22697;SDS011;11516;51.612;7.510;2022-07-05T09:24:07;2.95;;;2.15;;
22697;SDS011;11516;51.612;7.510;2022-07-05T09:29:02;3.30;;;2.00;;
22697;SDS011;11516;51.612;7.510;2022-07-05T09:31:30;2.60;;;2.07;;
22697;SDS011;11516;51.612;7.510;2022-07-05T09:34:10;3.10;;;1.70;;
22697;SDS011;11516;51.612;7.510;2022-07-05T09:36:51;3.92;;;1.80;;
22697;SDS011;11516;51.612;7.510;2022-07-05T09:39:34;2.80;;;1.67;;
22697;SDS011;11516;51.612;7.510;2022-07-05T09:42:14;3.70;;;1.60;;
22697;SDS011;11516;51.612;7.510;2022-07-05T09:45:02;3.63;;;1.70;;
22697;SDS011;11516;51.612;7.510;2022-07-05T09:47:28;2.67;;;1.40;;
22697;SDS011;11516;51.612;7.510;2022-07-05T09:49:54;3.47;;;1.70;;
22697;SDS011;11516;51.612;7.510;2022-07-05T09:52:25;3.90;;;1.50;;
22697;SDS011;11516;51.612;7.510;2022-07-05T09:55:09;2.78;;;1.60;;
22697;SDS011;11516;51.612;7.510;2022-07-05T09:57:41;2.72;;;1.50;;
22697;SDS011;11516;51.612;7.510;2022-07-05T10:00:08;7.30;;;5.35;;
22697;SDS011;11516;51.612;7.510;2022-07-05T10:02:42;3.50;;;1.67;;
22697;SDS011;11516;51.612;7.510;2022-07-05T10:05:22;3.25;;;1.50;;
22697;SDS011;11516;51.612;7.510;2022-07-05T10:08:09;2.38;;;1.40;;
22697;SDS011;11516;51.612;7.510;2022-07-05T10:10:35;3.78;;;1.70;;
22697;SDS011;11516;51.612;7.510;2022-07-05T10:13:02;3.88;;;1.58;;
22697;SDS011;11516;51.612;7.510;2022-07-05T10:15:30;4.88;;;2.05;;
22697;SDS011;11516;51.612;7.510;2022-07-05T10:18:04;2.42;;;1.85;;
22697;SDS011;11516;51.612;7.510;2022-07-05T10:20:34;2.35;;;1.52;;
22697;SDS011;11516;51.612;7.510;2022-07-05T10:25:42;2.33;;;1.25;;
22697;SDS011;11516;51.612;7.510;2022-07-05T10:28:13;1.73;;;1.50;;
22697;SDS011;11516;51.612;7.510;2022-07-05T10:30:40;2.35;;;1.48;;
22697;SDS011;11516;51.612;7.510;2022-07-05T10:33:06;2.45;;;1.58;;
22697;SDS011;11516;51.612;7.510;2022-07-05T10:35:32;3.38;;;1.80;;
22697;SDS011;11516;51.612;7.510;2022-07-05T10:37:59;2.63;;;1.80;;
22697;SDS011;11516;51.612;7.510;2022-07-05T10:40:26;3.60;;;1.70;;
22697;SDS011;11516;51.612;7.510;2022-07-05T10:42:57;2.58;;;1.58;;
22697;SDS011;11516;51.612;7.510;2022-07-05T10:50:47;5.10;;;1.50;;
22697;SDS011;11516;51.612;7.510;2022-07-05T10:53:15;2.45;;;1.30;;
22697;SDS011;11516;51.612;7.510;2022-07-05T11:03:44;3.72;;;1.63;;
22697;SDS011;11516;51.612;7.510;2022-07-05T11:06:27;4.97;;;1.30;;
22697;SDS011;11516;51.612;7.510;2022-07-05T11:11:34;1.77;;;1.02;;
22697;SDS011;11516;51.612;7.510;2022-07-05T11:16:45;3.38;;;1.30;;
22697;SDS011;11516;51.612;7.510;2022-07-05T11:19:11;1.70;;;1.13;;
22697;SDS011;11516;51.612;7.510;2022-07-05T11:24:46;3.50;;;1.45;;
22697;SDS011;11516;51.612;7.510;2022-07-05T11:27:12;2.33;;;1.10;;
22697;SDS011;11516;51.612;7.510;2022-07-05T11:29:41;2.70;;;1.10;;
22697;SDS011;11516;51.612;7.510;2022-07-05T11:32:11;1.80;;;0.90;;
22697;SDS011;11516;51.612;7.510;2022-07-05T11:34:41;1.70;;;1.10;;
22697;SDS011;11516;51.612;7.510;2022-07-05T11:37:22;2.77;;;1.20;;
22697;SDS011;11516;51.612;7.510;2022-07-05T11:42:49;2.35;;;1.23;;
22697;SDS011;11516;51.612;7.510;2022-07-05T11:45:16;2.00;;;1.10;;
22697;SDS011;11516;51.612;7.510;2022-07-05T11:47:42;2.57;;;1.27;;
22697;SDS011;11516;51.612;7.510;2022-07-05T11:50:09;1.13;;;1.00;;
22697;SDS011;11516;51.612;7.510;2022-07-05T11:52:36;3.30;;;1.45;;
22697;SDS011;11516;51.612;7.510;2022-07-05T11:55:04;3.50;;;1.20;;
22697;SDS011;11516;51.612;7.510;2022-07-05T11:57:32;3.63;;;1.42;;
22697;SDS011;11516;51.612;7.510;2022-07-05T11:59:57;1.92;;;1.25;;
22697;SDS011;11516;51.612;7.510;2022-07-05T12:02:23;1.77;;;1.30;;
22697;SDS011;11516;51.612;7.510;2022-07-05T12:04:49;3.60;;;1.53;;
22697;SDS011;11516;51.612;7.510;2022-07-05T12:07:32;2.97;;;1.60;;
22697;SDS011;11516;51.612;7.510;2022-07-05T12:09:59;3.00;;;1.40;;
22697;SDS011;11516;51.612;7.510;2022-07-05T12:12:45;3.03;;;1.38;;
22697;SDS011;11516;51.612;7.510;2022-07-05T12:15:13;1.88;;;1.00;;
22697;SDS011;11516;51.612;7.510;2022-07-05T12:17:46;2.45;;;1.25;;
22697;SDS011;11516;51.612;7.510;2022-07-05T12:20:14;1.33;;;1.20;;
22697;SDS011;11516;51.612;7.510;2022-07-05T12:22:48;2.70;;;1.20;;
22697;SDS011;11516;51.612;7.510;2022-07-05T12:25:15;1.77;;;1.30;;
22697;SDS011;11516;51.612;7.510;2022-07-05T12:27:44;2.67;;;1.33;;
22697;SDS011;11516;51.612;7.510;2022-07-05T12:30:22;1.70;;;1.27;;
22697;SDS011;11516;51.612;7.510;2022-07-05T12:38:10;2.60;;;1.20;;
22697;SDS011;11516;51.612;7.510;2022-07-05T12:40:40;2.38;;;1.30;;
22697;SDS011;11516;51.612;7.510;2022-07-05T12:45:35;2.40;;;1.35;;
22697;SDS011;11516;51.612;7.510;2022-07-05T12:48:03;4.80;;;1.65;;
22697;SDS011;11516;51.612;7.510;2022-07-05T12:50:44;4.70;;;1.37;;
22697;SDS011;11516;51.612;7.510;2022-07-05T12:53:14;2.25;;;1.35;;
22697;SDS011;11516;51.612;7.510;2022-07-05T12:56:07;1.50;;;1.20;;
22697;SDS011;11516;51.612;7.510;2022-07-05T13:01:29;2.22;;;1.30;;
22697;SDS011;11516;51.612;7.510;2022-07-05T13:04:05;2.25;;;1.30;;
22697;SDS011;11516;51.612;7.510;2022-07-05T13:17:12;2.15;;;1.60;;
22697;SDS011;11516;51.612;7.510;2022-07-05T13:19:39;2.63;;;1.15;;
22697;SDS011;11516;51.612;7.510;2022-07-05T13:22:07;1.77;;;1.08;;
22697;SDS011;11516;51.612;7.510;2022-07-05T13:24:39;2.80;;;1.40;;
22697;SDS011;11516;51.612;7.510;2022-07-05T13:27:06;1.80;;;1.40;;
22697;SDS011;11516;51.612;7.510;2022-07-05T13:29:33;2.33;;;1.20;;
22697;SDS011;11516;51.612;7.510;2022-07-05T13:32:00;1.38;;;1.13;;
22697;SDS011;11516;51.612;7.510;2022-07-05T13:34:26;1.67;;;1.37;;
22697;SDS011;11516;51.612;7.510;2022-07-05T13:36:52;3.07;;;1.30;;
22697;SDS011;11516;51.612;7.510;2022-07-05T13:39:18;1.65;;;1.50;;
22697;SDS011;11516;51.612;7.510;2022-07-05T13:41:46;2.55;;;1.38;;
22697;SDS011;11516;51.612;7.510;2022-07-05T13:44:13;2.58;;;1.25;;
22697;SDS011;11516;51.612;7.510;2022-07-05T13:46:38;2.20;;;1.10;;
22697;SDS011;11516;51.612;7.510;2022-07-05T13:49:04;3.53;;;1.37;;
22697;SDS011;11516;51.612;7.510;2022-07-05T13:51:32;1.53;;;1.10;;
22697;SDS011;11516;51.612;7.510;2022-07-05T13:54:09;2.40;;;1.33;;
22697;SDS011;11516;51.612;7.510;2022-07-05T13:56:34;1.30;;;1.20;;
22697;SDS011;11516;51.612;7.510;2022-07-05T13:59:01;2.20;;;1.27;;
22697;SDS011;11516;51.612;7.510;2022-07-05T14:01:28;1.85;;;1.42;;
22697;SDS011;11516;51.612;7.510;2022-07-05T14:03:55;1.85;;;1.30;;
22697;SDS011;11516;51.612;7.510;2022-07-05T14:06:23;2.15;;;1.20;;
22697;SDS011;11516;51.612;7.510;2022-07-05T14:11:50;2.33;;;1.25;;
22697;SDS011;11516;51.612;7.510;2022-07-05T14:14:16;3.33;;;1.35;;
22697;SDS011;11516;51.612;7.510;2022-07-05T14:16:42;1.73;;;1.23;;
22697;SDS011;11516;51.612;7.510;2022-07-05T14:19:07;2.50;;;1.48;;
22697;SDS011;11516;51.612;7.510;2022-07-05T14:21:33;2.13;;;1.60;;
22697;SDS011;11516;51.612;7.510;2022-07-05T14:23:58;2.47;;;1.40;;
22697;SDS011;11516;51.612;7.510;2022-07-05T14:26:24;4.87;;;1.50;;
22697;SDS011;11516;51.612;7.510;2022-07-05T14:28:52;3.42;;;1.50;;
22697;SDS011;11516;51.612;7.510;2022-07-05T14:31:18;1.70;;;1.30;;
22697;SDS011;11516;51.612;7.510;2022-07-05T14:33:44;3.03;;;1.60;;
22697;SDS011;11516;51.612;7.510;2022-07-05T14:36:09;2.30;;;1.30;;
22697;SDS011;11516;51.612;7.510;2022-07-05T14:38:35;1.37;;;1.23;;
22697;SDS011;11516;51.612;7.510;2022-07-05T14:41:01;3.03;;;1.50;;
22697;SDS011;11516;51.612;7.510;2022-07-05T14:43:26;3.10;;;1.30;;
22697;SDS011;11516;51.612;7.510;2022-07-05T14:45:59;2.85;;;1.45;;
22697;SDS011;11516;51.612;7.510;2022-07-05T14:49:06;2.58;;;1.30;;
22697;SDS011;11516;51.612;7.510;2022-07-05T14:51:32;1.97;;;1.33;;
22697;SDS011;11516;51.612;7.510;2022-07-05T14:53:57;1.90;;;1.60;;
22697;SDS011;11516;51.612;7.510;2022-07-05T14:56:23;2.10;;;1.60;;
22697;SDS011;11516;51.612;7.510;2022-07-05T14:58:49;2.30;;;1.50;;
22697;SDS011;11516;51.612;7.510;2022-07-05T15:01:14;2.43;;;1.67;;
22697;SDS011;11516;51.612;7.510;2022-07-05T15:03:42;1.90;;;1.58;;
22697;SDS011;11516;51.612;7.510;2022-07-05T15:06:11;3.00;;;1.60;;
22697;SDS011;11516;51.612;7.510;2022-07-05T15:08:36;3.20;;;1.80;;
22697;SDS011;11516;51.612;7.510;2022-07-05T15:11:03;5.75;;;1.90;;
22697;SDS011;11516;51.612;7.510;2022-07-05T15:13:32;4.07;;;2.10;;
22697;SDS011;11516;51.612;7.510;2022-07-05T15:16:01;2.05;;;1.63;;
22697;SDS011;11516;51.612;7.510;2022-07-05T15:18:27;3.50;;;1.77;;
22697;SDS011;11516;51.612;7.510;2022-07-05T15:20:52;2.37;;;1.80;;
22697;SDS011;11516;51.612;7.510;2022-07-05T15:23:18;2.47;;;1.80;;
22697;SDS011;11516;51.612;7.510;2022-07-05T15:25:47;3.67;;;2.42;;
22697;SDS011;11516;51.612;7.510;2022-07-05T15:28:16;3.15;;;2.10;;
22697;SDS011;11516;51.612;7.510;2022-07-05T15:30:55;4.50;;;2.47;;
22697;SDS011;11516;51.612;7.510;2022-07-05T15:33:21;4.10;;;2.90;;
22697;SDS011;11516;51.612;7.510;2022-07-05T15:36:01;4.57;;;3.35;;
22697;SDS011;11516;51.612;7.510;2022-07-05T15:38:33;3.88;;;3.47;;
22697;SDS011;11516;51.612;7.510;2022-07-05T15:41:02;4.80;;;3.20;;
22697;SDS011;11516;51.612;7.510;2022-07-05T15:43:27;4.47;;;3.10;;
22697;SDS011;11516;51.612;7.510;2022-07-05T15:45:53;3.78;;;2.60;;
22697;SDS011;11516;51.612;7.510;2022-07-05T15:48:19;5.47;;;2.75;;